Time;durP1;ratioP1;P1;durP2;ratioP2;P2;SDS_P1;SDS_P2;PMS_P1;PMS_P2;Temp;Humidity;BMP_temperature;BMP_pressure;BME280_temperature;BME280_humidity;BME280_pressure;Samples;Min_cycle;Max_cycle;Signal;HPM_P1;HPM_P2
2022/01/08 00:00:44;;;;;;;2.10;1.93;;;4.20;99.90;;;;;;5003752;28;20445;-69
2022/01/08 00:03:11;;;;;;;3.97;2.23;;;4.20;99.90;;;;;;5009370;28;20485;-66
2022/01/08 00:05:38;;;;;;;7.23;3.27;;;4.20;99.90;;;;;;5009903;28;20492;-66
2022/01/08 00:08:06;;;;;;;2.50;2.30;;;4.10;99.90;;;;;;5008133;28;20440;-68
2022/01/08 00:10:33;;;;;;;4.70;3.30;;;4.10;99.90;;;;;;5004883;28;20998;-70
2022/01/08 00:13:04;;;;;;;1.70;1.50;;;4.20;99.90;;;;;;5005698;28;20550;-69
2022/01/08 00:15:32;;;;;;;3.63;2.20;;;4.10;99.90;;;;;;5009607;28;20460;-69
2022/01/08 00:17:59;;;;;;;3.67;1.77;;;4.10;99.90;;;;;;5006382;28;20466;-70
2022/01/08 00:20:26;;;;;;;9.00;2.37;;;4.10;99.90;;;;;;5008851;28;20878;-67
2022/01/08 00:22:54;;;;;;;2.63;2.43;;;4.10;99.90;;;;;;5006301;28;20434;-66
2022/01/08 00:25:21;;;;;;;3.50;3.07;;;4.00;99.90;;;;;;5006325;28;20584;-69
2022/01/08 00:27:48;;;;;;;4.43;2.37;;;4.00;99.90;;;;;;5015474;28;21657;-66
2022/01/08 00:30:17;;;;;;;3.53;3.33;;;4.00;99.90;;;;;;5012123;28;21261;-68
2022/01/08 00:32:44;;;;;;;3.60;2.17;;;4.20;99.90;;;;;;5013194;28;21409;-68
2022/01/08 00:35:12;;;;;;;6.07;2.50;;;4.10;99.90;;;;;;5017175;28;20498;-68
2022/01/08 00:37:39;;;;;;;4.73;2.70;;;4.00;99.90;;;;;;5009643;28;20567;-68
2022/01/08 00:40:08;;;;;;;4.70;4.30;;;4.10;99.90;;;;;;5005738;28;20499;-68
2022/01/08 00:42:35;;;;;;;3.23;2.80;;;4.00;99.90;;;;;;5010665;28;22110;-69
2022/01/08 00:45:03;;;;;;;4.50;2.90;;;4.00;99.90;;;;;;4990499;28;20482;-69
2022/01/08 00:47:31;;;;;;;3.23;2.93;;;4.00;99.90;;;;;;5011430;28;20431;-69
2022/01/08 00:49:59;;;;;;;3.33;2.20;;;3.90;99.90;;;;;;5007093;28;20439;-69
2022/01/08 00:52:26;;;;;;;3.60;2.47;;;3.90;99.90;;;;;;5011915;28;21185;-67
2022/01/08 00:54:53;;;;;;;3.53;2.97;;;3.90;99.90;;;;;;5000728;28;20521;-69
2022/01/08 00:57:20;;;;;;;6.03;3.37;;;4.00;99.90;;;;;;5008540;28;20456;-69
2022/01/08 00:59:47;;;;;;;4.47;3.23;;;4.00;99.90;;;;;;5005935;28;20565;-70
2022/01/08 01:02:14;;;;;;;4.23;3.17;;;3.90;99.90;;;;;;5007302;28;21778;-69
2022/01/08 01:04:42;;;;;;;8.53;3.67;;;4.00;99.90;;;;;;4999821;28;20530;-70
2022/01/08 01:07:09;;;;;;;7.33;3.37;;;3.90;99.90;;;;;;5008755;28;20535;-69
2022/01/08 01:09:37;;;;;;;9.60;4.00;;;3.80;99.90;;;;;;5005006;28;20446;-69
2022/01/08 01:12:04;;;;;;;5.83;3.50;;;3.80;99.90;;;;;;5006341;28;20507;-69
2022/01/08 01:14:31;;;;;;;5.80;4.00;;;3.80;99.90;;;;;;5010689;28;20842;-68
2022/01/08 01:16:58;;;;;;;5.63;4.90;;;3.80;99.90;;;;;;5006873;28;20459;-68
2022/01/08 01:19:25;;;;;;;6.37;3.50;;;3.70;99.90;;;;;;5012449;28;21265;-69
2022/01/08 01:21:56;;;;;;;4.53;2.77;;;3.70;99.90;;;;;;5007114;28;20998;-68
2022/01/08 01:24:25;;;;;;;3.87;2.63;;;3.60;99.90;;;;;;5008149;28;20592;-66
2022/01/08 01:27:16;;;;;;;5.17;2.90;;;3.40;99.90;;;;;;5003561;28;20544;-69
2022/01/08 01:29:51;;;;;;;5.60;3.03;;;3.40;99.90;;;;;;5016130;28;20454;-66
2022/01/08 01:43:27;;;;;;;6.80;3.83;;;3.20;99.90;;;;;;5010291;28;20438;-65
2022/01/08 01:48:38;;;;;;;9.30;3.67;;;3.40;99.90;;;;;;5010557;28;20504;-68
2022/01/08 01:51:05;;;;;;;4.87;3.60;;;3.10;99.90;;;;;;5018269;28;20443;-68
2022/01/08 01:53:36;;;;;;;12.47;5.30;;;3.00;99.90;;;;;;5010410;28;20438;-69
2022/01/08 01:56:03;;;;;;;4.37;3.37;;;3.00;99.90;;;;;;5008460;28;20462;-68
2022/01/08 01:58:30;;;;;;;4.17;3.77;;;3.10;99.90;;;;;;5006417;28;21709;-68
2022/01/08 02:00:57;;;;;;;4.23;3.13;;;3.10;99.90;;;;;;5011953;28;20464;-66
2022/01/08 02:03:24;;;;;;;6.37;4.20;;;3.20;99.90;;;;;;5008954;28;20492;-69
2022/01/08 02:05:52;;;;;;;3.43;3.13;;;3.10;99.90;;;;;;5009019;28;20562;-67
2022/01/08 02:08:19;;;;;;;8.10;4.30;;;3.10;99.90;;;;;;5006849;28;20447;-67
2022/01/08 02:10:47;;;;;;;6.37;3.17;;;3.00;99.90;;;;;;5000726;28;20435;-70
2022/01/08 02:13:22;;;;;;;15.00;4.50;;;2.90;99.90;;;;;;5015678;28;20503;-65
2022/01/08 02:15:52;;;;;;;15.33;3.63;;;3.00;99.90;;;;;;5003795;28;20465;-69
2022/01/08 02:18:19;;;;;;;6.40;5.17;;;3.10;99.90;;;;;;5001176;28;20450;-69
2022/01/08 02:20:47;;;;;;;4.70;3.07;;;3.10;99.90;;;;;;5004281;28;21012;-67
2022/01/08 02:23:14;;;;;;;7.57;4.30;;;2.90;99.90;;;;;;5012628;28;21858;-68
2022/01/08 02:25:41;;;;;;;8.30;4.60;;;3.00;99.90;;;;;;5007468;28;20455;-69
2022/01/08 02:28:09;;;;;;;6.70;3.50;;;3.00;99.90;;;;;;5007809;28;20467;-66
2022/01/08 02:30:36;;;;;;;14.50;4.80;;;3.00;99.90;;;;;;5016217;28;20557;-68
2022/01/08 02:33:03;;;;;;;11.97;4.13;;;3.00;99.90;;;;;;5000888;28;20495;-67
2022/01/08 02:35:30;;;;;;;4.27;3.60;;;2.90;99.90;;;;;;5000256;28;20558;-68
2022/01/08 02:37:59;;;;;;;5.70;2.40;;;2.90;99.90;;;;;;5008695;28;20976;-67
2022/01/08 02:40:26;;;;;;;11.43;5.90;;;2.90;99.90;;;;;;5007042;28;20910;-67
2022/01/08 02:43:00;;;;;;;7.23;5.50;;;2.90;99.90;;;;;;5006325;28;20440;-70
2022/01/08 02:45:30;;;;;;;15.20;7.23;;;2.90;99.90;;;;;;5018328;28;20449;-70
2022/01/08 02:47:58;;;;;;;10.03;6.83;;;2.90;99.90;;;;;;5007497;28;20467;-68
2022/01/08 02:50:26;;;;;;;5.93;4.07;;;2.90;99.90;;;;;;5010669;28;21200;-69
2022/01/08 02:52:53;;;;;;;5.80;4.37;;;2.90;99.90;;;;;;5000959;28;20464;-69
2022/01/08 02:55:22;;;;;;;19.47;5.13;;;2.80;99.90;;;;;;5007244;28;20537;-69
2022/01/08 02:57:50;;;;;;;8.17;4.27;;;2.80;99.90;;;;;;5012788;28;20438;-71
2022/01/08 03:00:20;;;;;;;17.20;5.97;;;2.80;99.90;;;;;;5005496;28;21139;-69
2022/01/08 03:02:48;;;;;;;8.40;4.10;;;2.80;99.90;;;;;;5011422;28;20495;-67
2022/01/08 03:05:16;;;;;;;6.50;4.60;;;2.80;99.90;;;;;;5013207;28;20967;-65
2022/01/08 03:07:45;;;;;;;6.53;4.23;;;2.70;99.90;;;;;;5004598;28;21524;-68
2022/01/08 03:10:15;;;;;;;9.80;5.77;;;2.70;99.90;;;;;;5003766;28;20990;-67
2022/01/08 03:12:45;;;;;;;7.80;4.60;;;2.70;99.90;;;;;;5006334;28;20529;-66
2022/01/08 03:15:14;;;;;;;4.40;3.93;;;2.70;99.90;;;;;;5010828;28;21562;-66
2022/01/08 03:17:42;;;;;;;6.90;3.93;;;2.70;99.90;;;;;;5002359;28;22478;-68
2022/01/08 03:20:13;;;;;;;12.33;5.63;;;2.70;99.90;;;;;;5000385;28;20439;-68
2022/01/08 03:22:41;;;;;;;9.40;3.73;;;2.70;99.90;;;;;;5004012;28;20445;-68
2022/01/08 03:25:09;;;;;;;8.23;5.10;;;2.70;99.90;;;;;;5006225;28;20560;-68
2022/01/08 03:27:37;;;;;;;3.90;3.40;;;2.70;99.90;;;;;;5004808;28;20938;-69
2022/01/08 03:30:07;;;;;;;10.73;5.10;;;2.50;99.90;;;;;;5008555;28;20586;-67
2022/01/08 03:32:34;;;;;;;6.00;4.40;;;2.50;99.90;;;;;;5012962;28;20523;-68
2022/01/08 03:35:01;;;;;;;5.53;4.90;;;2.60;99.90;;;;;;5008554;28;20473;-65
2022/01/08 03:37:28;;;;;;;12.37;7.53;;;2.60;99.90;;;;;;5007410;28;20442;-69
2022/01/08 03:39:55;;;;;;;6.30;4.10;;;2.40;99.90;;;;;;5016954;28;20952;-65
2022/01/08 03:42:22;;;;;;;9.60;5.70;;;2.50;99.90;;;;;;5021483;28;20929;-68
2022/01/08 03:44:50;;;;;;;13.00;6.40;;;2.50;99.90;;;;;;5009710;28;20454;-69
2022/01/08 03:50:05;;;;;;;6.80;4.07;;;2.60;99.90;;;;;;4978586;28;20458;-70
2022/01/08 03:52:32;;;;;;;6.67;4.23;;;2.60;99.90;;;;;;5013319;28;20444;-66
2022/01/08 03:54:59;;;;;;;4.90;3.63;;;2.50;99.90;;;;;;5012236;28;20501;-68
2022/01/08 03:57:26;;;;;;;10.57;6.97;;;2.60;99.90;;;;;;5010259;28;20502;-67
2022/01/08 03:59:53;;;;;;;10.17;6.57;;;2.50;99.90;;;;;;5016682;28;20504;-70
2022/01/08 04:02:21;;;;;;;7.43;4.70;;;2.50;99.90;;;;;;4978276;28;20438;-70
2022/01/08 04:04:49;;;;;;;10.00;5.13;;;2.50;99.90;;;;;;4965458;28;20469;-70
2022/01/08 04:07:16;;;;;;;7.30;4.07;;;2.40;99.90;;;;;;5001339;28;20992;-70
2022/01/08 04:09:45;;;;;;;11.53;5.47;;;2.50;99.90;;;;;;4990288;28;21018;-70
2022/01/08 04:12:16;;;;;;;13.70;5.00;;;2.50;99.90;;;;;;4998918;28;20459;-68
2022/01/08 04:14:52;;;;;;;11.13;5.13;;;2.50;99.90;;;;;;5004218;28;20483;-67
2022/01/08 04:17:19;;;;;;;22.33;5.90;;;2.40;99.90;;;;;;5003465;28;20438;-69
2022/01/08 04:19:47;;;;;;;8.13;5.67;;;2.40;99.90;;;;;;5019930;28;20476;-69
2022/01/08 04:22:16;;;;;;;13.13;5.87;;;2.40;99.90;;;;;;5015298;28;20520;-68
2022/01/08 04:24:43;;;;;;;7.70;4.77;;;2.40;99.90;;;;;;5007163;28;20449;-68
2022/01/08 04:27:11;;;;;;;10.87;4.90;;;2.40;99.90;;;;;;5009894;28;20580;-67
2022/01/08 04:29:38;;;;;;;9.70;4.60;;;2.40;99.90;;;;;;5003494;28;21310;-66
2022/01/08 04:32:05;;;;;;;13.80;7.30;;;2.40;99.90;;;;;;5002761;28;20439;-68
2022/01/08 04:34:32;;;;;;;10.67;5.90;;;2.40;99.90;;;;;;4996645;28;20610;-70
2022/01/08 04:37:01;;;;;;;5.10;4.70;;;2.40;99.90;;;;;;5006434;28;20527;-70
2022/01/08 04:39:28;;;;;;;8.07;5.47;;;2.40;99.90;;;;;;5011424;28;20942;-69
2022/01/08 04:41:55;;;;;;;9.60;4.93;;;2.40;99.90;;;;;;5009184;28;20466;-69
2022/01/08 04:44:23;;;;;;;7.20;6.00;;;2.30;99.90;;;;;;5001368;28;20454;-70
2022/01/08 04:46:50;;;;;;;7.27;5.30;;;2.30;99.90;;;;;;5007736;28;20427;-68
2022/01/08 04:49:17;;;;;;;10.87;6.10;;;2.30;99.90;;;;;;5005088;28;20531;-69
2022/01/08 04:51:44;;;;;;;6.80;6.17;;;2.40;99.90;;;;;;5001328;28;21194;-69
2022/01/08 04:54:13;;;;;;;1.23;1.13;;;2.50;99.90;;;;;;5008586;28;20474;-68
2022/01/08 04:56:40;;;;;;;7.13;4.50;;;2.40;99.90;;;;;;5009829;28;20462;-69
2022/01/08 04:59:07;;;;;;;9.27;4.53;;;2.40;99.90;;;;;;5004246;28;20493;-68
2022/01/08 05:01:34;;;;;;;10.00;7.57;;;2.30;99.90;;;;;;5008292;28;20460;-69
2022/01/08 05:04:02;;;;;;;14.60;6.87;;;2.30;99.90;;;;;;5005675;28;20459;-70
2022/01/08 05:06:29;;;;;;;12.70;5.50;;;2.30;99.90;;;;;;5013875;28;20543;-69
2022/01/08 05:08:56;;;;;;;23.40;7.50;;;2.30;99.90;;;;;;5026554;28;20569;-69
2022/01/08 05:11:24;;;;;;;10.83;6.67;;;2.40;99.90;;;;;;5017429;28;20481;-68
2022/01/08 05:13:52;;;;;;;6.97;6.00;;;2.30;99.90;;;;;;5007863;28;20450;-69
2022/01/08 05:16:19;;;;;;;10.50;8.43;;;2.30;99.90;;;;;;5007553;28;20516;-68
2022/01/08 05:18:46;;;;;;;11.90;6.30;;;2.30;99.90;;;;;;5011889;28;20434;-68
2022/01/08 05:21:20;;;;;;;20.67;7.17;;;2.20;99.90;;;;;;5004588;28;20477;-69
2022/01/08 05:23:47;;;;;;;11.03;6.70;;;2.20;99.90;;;;;;5013027;28;20456;-67
2022/01/08 05:26:15;;;;;;;8.10;6.37;;;2.20;99.90;;;;;;5017428;28;20521;-69
2022/01/08 05:28:44;;;;;;;6.87;5.07;;;2.10;99.90;;;;;;4998842;28;20546;-67
2022/01/08 05:31:11;;;;;;;6.77;4.50;;;2.20;99.90;;;;;;5007855;28;21005;-68
2022/01/08 05:33:38;;;;;;;3.70;3.37;;;2.10;99.90;;;;;;5009063;28;20542;-68
2022/01/08 05:36:05;;;;;;;9.93;4.40;;;2.10;99.90;;;;;;5011851;28;20584;-67
2022/01/08 05:38:32;;;;;;;11.20;6.40;;;2.10;99.90;;;;;;5018701;28;20533;-69
2022/01/08 05:41:00;;;;;;;8.83;7.10;;;2.20;99.90;;;;;;5006416;28;20464;-69
2022/01/08 05:43:27;;;;;;;8.77;5.70;;;2.00;99.90;;;;;;5009002;28;20488;-69
2022/01/08 05:45:56;;;;;;;5.90;4.10;;;2.00;99.90;;;;;;5011743;28;24923;-70
2022/01/08 05:48:23;;;;;;;12.03;6.17;;;2.00;99.90;;;;;;5014701;28;20434;-68
2022/01/08 05:50:51;;;;;;;11.13;8.87;;;2.10;99.90;;;;;;5010692;28;20449;-68
2022/01/08 05:53:18;;;;;;;12.27;7.90;;;2.10;99.90;;;;;;5009291;28;20452;-69
2022/01/08 05:55:45;;;;;;;6.10;5.00;;;2.00;99.90;;;;;;5013462;28;20491;-67
2022/01/08 05:58:13;;;;;;;6.57;4.60;;;2.10;99.90;;;;;;5011560;28;20445;-69
2022/01/08 06:00:40;;;;;;;13.40;7.20;;;2.10;99.90;;;;;;5009039;28;20458;-70
2022/01/08 06:03:09;;;;;;;9.43;7.10;;;2.00;99.90;;;;;;5007213;28;20545;-67
2022/01/08 06:05:36;;;;;;;11.70;6.80;;;2.00;99.90;;;;;;5009275;28;20455;-71
2022/01/08 06:08:03;;;;;;;19.33;9.30;;;1.90;99.90;;;;;;5009840;28;20796;-68
2022/01/08 06:10:32;;;;;;;12.00;6.57;;;2.00;99.90;;;;;;5005566;28;20484;-68
2022/01/08 06:12:59;;;;;;;4.73;4.33;;;2.00;99.90;;;;;;5012709;28;20442;-69
2022/01/08 06:15:26;;;;;;;11.70;6.30;;;1.90;99.90;;;;;;5024265;28;20573;-68
2022/01/08 06:17:53;;;;;;;11.13;7.47;;;1.90;99.90;;;;;;5010770;28;20584;-69
2022/01/08 06:20:22;;;;;;;6.53;4.50;;;1.90;99.90;;;;;;5004330;28;20493;-69
2022/01/08 06:22:49;;;;;;;31.40;8.47;;;2.00;99.90;;;;;;4996546;28;20653;-69
2022/01/08 06:25:16;;;;;;;9.27;6.53;;;2.00;99.90;;;;;;5009136;28;20543;-69
2022/01/08 06:27:43;;;;;;;31.13;7.53;;;1.90;99.90;;;;;;4996950;28;20442;-68
2022/01/08 06:30:11;;;;;;;7.80;6.97;;;1.90;99.90;;;;;;4999758;28;20482;-68
2022/01/08 06:32:38;;;;;;;20.97;10.93;;;1.90;99.90;;;;;;4995564;28;21171;-69
2022/01/08 06:35:05;;;;;;;8.17;7.17;;;1.90;99.90;;;;;;4998117;28;20479;-69
2022/01/08 06:37:34;;;;;;;11.30;6.80;;;1.90;99.90;;;;;;5004273;28;20573;-68
2022/01/08 06:40:01;;;;;;;10.63;7.37;;;1.90;99.90;;;;;;5012176;28;20565;-68
2022/01/08 06:42:28;;;;;;;13.63;7.80;;;1.90;99.90;;;;;;5010900;28;21038;-68
2022/01/08 06:44:55;;;;;;;16.00;7.80;;;1.90;99.90;;;;;;5006231;28;20838;-69
2022/01/08 06:47:23;;;;;;;13.87;8.47;;;1.80;99.90;;;;;;5011048;28;20609;-69
2022/01/08 06:49:50;;;;;;;9.40;6.87;;;1.90;99.90;;;;;;5005988;28;20511;-70
2022/01/08 06:52:19;;;;;;;25.03;9.03;;;1.80;99.90;;;;;;5001287;28;20462;-69
2022/01/08 06:54:47;;;;;;;11.10;8.70;;;1.80;99.90;;;;;;5001180;28;20492;-69
2022/01/08 06:57:14;;;;;;;12.63;9.03;;;1.90;99.90;;;;;;5007223;28;20546;-70
2022/01/08 06:59:41;;;;;;;14.10;7.77;;;1.90;99.90;;;;;;5000740;28;21438;-70
2022/01/08 07:02:09;;;;;;;9.00;7.20;;;1.90;99.90;;;;;;4997866;28;21145;-69
2022/01/08 07:04:36;;;;;;;10.47;3.33;;;1.90;99.90;;;;;;5004375;28;20563;-70
2022/01/08 07:07:03;;;;;;;9.60;4.70;;;1.80;99.90;;;;;;4995518;28;21733;-69
2022/01/08 07:09:30;;;;;;;11.90;8.17;;;1.80;99.90;;;;;;4992704;28;20475;-69
2022/01/08 07:11:58;;;;;;;15.20;8.87;;;1.80;99.90;;;;;;4996891;28;20537;-70
2022/01/08 07:14:26;;;;;;;10.70;6.57;;;1.80;99.90;;;;;;4996616;28;20998;-70
2022/01/08 07:16:54;;;;;;;14.60;9.50;;;1.80;99.90;;;;;;4993152;28;20488;-69
2022/01/08 07:19:21;;;;;;;11.07;8.33;;;1.80;99.90;;;;;;5006953;28;20720;-68
2022/01/08 07:21:48;;;;;;;15.73;8.13;;;1.80;99.90;;;;;;5001935;28;20716;-68
2022/01/08 07:24:15;;;;;;;10.13;5.90;;;1.80;99.90;;;;;;5007216;28;20590;-67
2022/01/08 07:26:42;;;;;;;9.03;7.90;;;1.80;99.90;;;;;;5002611;28;21099;-69
2022/01/08 07:29:11;;;;;;;10.00;7.60;;;1.80;99.90;;;;;;5005462;28;22565;-69
2022/01/08 07:31:38;;;;;;;14.30;5.90;;;1.80;99.90;;;;;;5001910;28;20560;-70
2022/01/08 07:34:05;;;;;;;12.13;6.50;;;1.80;99.90;;;;;;4993540;28;20450;-69
2022/01/08 07:36:32;;;;;;;15.93;9.47;;;1.80;99.90;;;;;;5001969;28;20553;-67
2022/01/08 07:38:59;;;;;;;11.47;7.10;;;1.80;99.90;;;;;;5009066;28;20899;-71
2022/01/08 07:41:27;;;;;;;6.87;4.83;;;1.80;99.90;;;;;;5006585;28;20438;-71
2022/01/08 07:43:54;;;;;;;11.30;6.90;;;1.80;99.90;;;;;;5003196;28;20439;-69
2022/01/08 07:46:23;;;;;;;15.90;8.77;;;1.90;99.90;;;;;;5008069;28;20623;-69
2022/01/08 07:48:50;;;;;;;18.67;7.10;;;1.90;99.90;;;;;;5007179;28;21913;-71
2022/01/08 07:51:17;;;;;;;13.30;11.40;;;1.90;99.90;;;;;;5013673;28;20531;-68
2022/01/08 07:53:44;;;;;;;14.47;6.50;;;1.90;99.90;;;;;;5004747;28;20467;-71
2022/01/08 07:56:11;;;;;;;18.50;9.90;;;1.90;99.90;;;;;;5008397;28;21061;-71
2022/01/08 07:58:38;;;;;;;24.13;7.50;;;2.00;99.90;;;;;;5005244;28;20465;-70
2022/01/08 08:01:05;;;;;;;13.20;5.30;;;2.00;99.90;;;;;;4999044;28;21199;-68
2022/01/08 08:03:34;;;;;;;17.23;9.43;;;2.00;99.90;;;;;;5001606;28;21178;-69
2022/01/08 08:06:01;;;;;;;11.30;5.90;;;1.90;99.90;;;;;;5009735;28;20527;-69
2022/01/08 08:08:28;;;;;;;5.53;3.73;;;2.00;99.90;;;;;;4998044;28;20584;-69
2022/01/08 08:10:55;;;;;;;3.73;3.43;;;2.10;99.90;;;;;;5000784;28;20533;-68
2022/01/08 08:13:23;;;;;;;16.37;12.27;;;2.20;99.90;;;;;;5003816;28;20464;-68
2022/01/08 08:15:50;;;;;;;22.73;8.77;;;2.20;99.90;;;;;;5006632;28;20480;-67
2022/01/08 08:18:19;;;;;;;14.53;8.30;;;2.30;99.90;;;;;;5000847;28;20430;-70
2022/01/08 08:20:48;;;;;;;24.10;11.17;;;2.30;99.90;;;;;;5002454;28;20530;-70
2022/01/08 08:23:15;;;;;;;14.97;8.47;;;2.40;99.90;;;;;;4999680;28;20912;-69
2022/01/08 08:25:42;;;;;;;17.83;9.47;;;2.40;99.90;;;;;;5010577;28;20866;-69
2022/01/08 08:28:09;;;;;;;28.10;11.17;;;2.40;99.90;;;;;;5028748;28;20486;-70
2022/01/08 08:30:37;;;;;;;13.53;8.53;;;2.50;99.90;;;;;;5011297;28;20636;-71
2022/01/08 08:33:05;;;;;;;13.97;7.37;;;2.40;99.90;;;;;;5010366;28;20463;-69
2022/01/08 08:35:32;;;;;;;11.40;6.10;;;2.50;99.90;;;;;;4999019;28;20714;-68
2022/01/08 08:38:01;;;;;;;8.37;4.27;;;2.50;99.90;;;;;;4999701;28;21751;-67
2022/01/08 08:40:29;;;;;;;11.87;9.70;;;2.60;99.90;;;;;;5001565;28;20462;-71
2022/01/08 08:42:56;;;;;;;3.73;3.27;;;2.60;99.90;;;;;;5007490;28;20464;-70
2022/01/08 08:45:24;;;;;;;9.80;6.77;;;2.70;99.90;;;;;;5000452;28;20480;-69
2022/01/08 08:47:51;;;;;;;14.30;7.30;;;2.60;99.90;;;;;;5004391;28;20455;-67
2022/01/08 08:50:18;;;;;;;12.10;7.30;;;2.70;99.90;;;;;;5000682;28;20972;-70
2022/01/08 08:52:47;;;;;;;12.60;7.53;;;2.70;99.90;;;;;;4996598;28;22995;-70
2022/01/08 08:55:18;;;;;;;22.87;10.80;;;2.70;99.90;;;;;;4995661;28;20457;-70
2022/01/08 08:57:45;;;;;;;18.90;9.60;;;2.70;99.90;;;;;;4997275;28;21809;-70
2022/01/08 09:00:13;;;;;;;10.43;7.37;;;2.70;99.90;;;;;;4998304;28;20438;-71
2022/01/08 09:02:40;;;;;;;9.40;6.17;;;2.70;99.90;;;;;;5000097;28;21427;-72
2022/01/08 09:05:08;;;;;;;9.33;5.80;;;2.80;99.90;;;;;;5005457;28;20545;-69
2022/01/08 09:07:35;;;;;;;21.20;6.50;;;2.80;99.90;;;;;;5008850;28;20459;-71
2022/01/08 09:10:03;;;;;;;15.90;5.80;;;2.90;99.90;;;;;;5002942;28;20467;-71
2022/01/08 09:12:32;;;;;;;7.80;4.97;;;2.90;99.90;;;;;;5000267;28;20505;-69
2022/01/08 09:14:59;;;;;;;7.60;4.47;;;2.90;99.90;;;;;;5003521;28;20488;-70
2022/01/08 09:17:26;;;;;;;12.87;7.10;;;2.80;99.90;;;;;;5012906;28;20460;-69
2022/01/08 09:19:53;;;;;;;13.00;6.20;;;2.80;99.90;;;;;;5011978;28;20438;-70
2022/01/08 09:22:20;;;;;;;13.27;8.17;;;2.80;99.90;;;;;;5009740;28;20449;-70
2022/01/08 09:24:48;;;;;;;5.57;3.30;;;2.80;99.90;;;;;;5013964;28;20495;-69
2022/01/08 09:27:15;;;;;;;7.53;3.90;;;2.90;99.90;;;;;;5011011;28;20542;-71
2022/01/08 09:29:44;;;;;;;9.40;4.93;;;2.90;99.90;;;;;;5003991;28;20894;-70
2022/01/08 09:32:11;;;;;;;9.17;5.57;;;2.90;99.90;;;;;;5014080;28;21228;-68
2022/01/08 09:34:39;;;;;;;8.37;7.43;;;3.00;99.90;;;;;;5018488;28;21136;-69
2022/01/08 09:37:06;;;;;;;11.20;6.10;;;3.10;99.90;;;;;;5003072;28;20743;-69
2022/01/08 09:39:34;;;;;;;10.90;6.57;;;3.30;99.90;;;;;;5010269;28;20460;-69
2022/01/08 09:42:03;;;;;;;11.30;6.90;;;3.40;99.90;;;;;;4986340;28;20460;-70
2022/01/08 09:44:30;;;;;;;17.70;6.80;;;3.40;99.90;;;;;;5006077;28;20513;-70
2022/01/08 09:46:59;;;;;;;16.47;8.10;;;3.40;99.90;;;;;;4999429;28;20461;-70
2022/01/08 09:49:29;;;;;;;11.57;7.50;;;3.40;99.90;;;;;;5017291;28;20970;-70
2022/01/08 09:51:56;;;;;;;10.67;8.07;;;3.40;99.90;;;;;;5008242;28;20517;-69
2022/01/08 09:54:24;;;;;;;15.27;8.30;;;3.50;99.90;;;;;;5003263;28;20591;-70
2022/01/08 09:56:52;;;;;;;8.60;4.33;;;3.60;99.90;;;;;;5008488;28;20486;-69
2022/01/08 09:59:21;;;;;;;8.20;4.47;;;3.70;99.90;;;;;;5010239;28;20483;-71
2022/01/08 10:01:54;;;;;;;12.60;5.37;;;3.60;99.90;;;;;;5005172;28;20814;-70
2022/01/08 10:04:26;;;;;;;7.40;6.07;;;3.50;99.90;;;;;;5007168;28;20453;-69
2022/01/08 10:06:53;;;;;;;11.40;6.87;;;3.40;99.90;;;;;;5009904;28;20463;-68
2022/01/08 10:09:20;;;;;;;6.53;5.50;;;3.50;99.90;;;;;;5003474;28;20434;-70
2022/01/08 10:11:49;;;;;;;16.07;7.13;;;3.50;99.90;;;;;;5009161;28;21514;-69
2022/01/08 10:14:28;;;;;;;6.13;5.53;;;3.60;99.90;;;;;;5006917;28;20615;-69
2022/01/08 10:19:42;;;;;;;6.20;4.20;;;3.70;99.90;;;;;;5020536;28;20424;-67
2022/01/08 10:22:15;;;;;;;10.93;4.83;;;3.70;99.90;;;;;;5011487;28;20445;-69
2022/01/08 10:24:42;;;;;;;8.17;4.73;;;3.60;99.90;;;;;;5001033;28;20454;-68
2022/01/08 10:27:09;;;;;;;16.00;5.53;;;3.60;99.90;;;;;;5005310;28;20449;-71
2022/01/08 10:29:37;;;;;;;11.80;6.87;;;3.70;99.90;;;;;;5010912;28;20567;-71
2022/01/08 10:32:07;;;;;;;10.77;6.07;;;3.70;99.90;;;;;;5007727;28;20466;-67
2022/01/08 10:34:34;;;;;;;14.40;6.80;;;3.80;99.90;;;;;;5009376;28;20454;-71
2022/01/08 10:37:05;;;;;;;8.23;3.20;;;3.90;99.90;;;;;;5010721;28;20502;-70
2022/01/08 10:39:34;;;;;;;9.93;5.10;;;3.90;99.90;;;;;;5005871;28;20493;-69
2022/01/08 10:42:09;;;;;;;7.70;4.00;;;4.00;99.90;;;;;;4987457;28;20492;-69
2022/01/08 10:44:36;;;;;;;5.20;4.13;;;4.00;99.90;;;;;;4998937;28;21001;-69
2022/01/08 10:47:06;;;;;;;14.03;5.77;;;3.90;99.90;;;;;;4983848;28;20794;-69
2022/01/08 10:49:35;;;;;;;10.00;4.70;;;4.00;99.90;;;;;;4984170;28;20464;-70
2022/01/08 10:52:06;;;;;;;8.03;4.50;;;4.10;99.90;;;;;;4981475;28;20522;-70
2022/01/08 10:54:35;;;;;;;17.13;6.60;;;4.00;99.90;;;;;;4989172;28;20624;-70
2022/01/08 10:57:06;;;;;;;17.80;4.17;;;4.00;99.90;;;;;;4982153;28;21014;-70
2022/01/08 10:59:34;;;;;;;10.30;5.30;;;4.00;99.90;;;;;;4993085;28;20853;-69
2022/01/08 11:02:03;;;;;;;8.40;3.90;;;4.10;99.90;;;;;;4985913;28;20992;-70
2022/01/08 11:04:43;;;;;;;8.13;3.40;;;4.10;99.90;;;;;;4988008;28;20732;-70
2022/01/08 11:07:14;;;;;;;7.93;4.90;;;4.10;99.90;;;;;;5002400;28;21186;-70
2022/01/08 11:09:43;;;;;;;3.40;3.03;;;4.10;99.90;;;;;;5001473;28;22948;-69
2022/01/08 11:12:13;;;;;;;10.43;4.10;;;4.10;99.90;;;;;;5002351;28;21269;-71
2022/01/08 11:17:37;;;;;;;7.17;5.57;;;4.30;99.90;;;;;;5001362;28;20576;-69
2022/01/08 11:20:08;;;;;;;4.53;3.30;;;4.70;99.90;;;;;;4998736;28;22302;-73
2022/01/08 11:22:38;;;;;;;4.63;2.87;;;4.90;99.90;;;;;;4994678;28;20434;-70
2022/01/08 11:25:08;;;;;;;12.93;5.50;;;4.90;99.90;;;;;;4996571;28;20483;-70
2022/01/08 11:27:42;;;;;;;3.33;3.03;;;4.90;99.90;;;;;;5004259;28;20434;-67
2022/01/08 11:30:12;;;;;;;8.30;3.77;;;4.90;99.90;;;;;;5008611;28;21344;-71
2022/01/08 11:32:40;;;;;;;6.47;3.17;;;4.90;99.90;;;;;;5008581;28;20462;-69
2022/01/08 11:35:10;;;;;;;5.50;4.63;;;5.00;99.90;;;;;;4998985;28;21726;-70
2022/01/08 11:37:45;;;;;;;9.23;3.37;;;5.10;99.90;;;;;;4998705;28;20487;-69
2022/01/08 11:40:15;;;;;;;3.13;2.73;;;5.20;99.90;;;;;;5006710;28;20913;-69
2022/01/08 11:42:42;;;;;;;10.30;4.83;;;5.30;99.90;;;;;;5006304;28;20951;-72
2022/01/08 11:45:13;;;;;;;5.63;2.53;;;5.30;99.90;;;;;;5003814;28;22519;-69
2022/01/08 11:47:44;;;;;;;6.17;4.37;;;5.30;99.90;;;;;;5001514;28;20426;-70
2022/01/08 11:50:13;;;;;;;6.10;2.67;;;5.50;99.90;;;;;;4995720;28;20921;-70
2022/01/08 11:52:41;;;;;;;3.03;2.40;;;5.50;99.90;;;;;;5007085;28;22041;-70
2022/01/08 11:55:09;;;;;;;3.90;3.60;;;5.70;99.90;;;;;;5004879;28;20478;-70
2022/01/08 11:57:36;;;;;;;7.03;3.50;;;5.80;99.90;;;;;;5002782;28;20826;-70
2022/01/08 12:00:06;;;;;;;5.30;3.53;;;5.70;99.90;;;;;;4997883;28;20442;-70
2022/01/08 12:02:39;;;;;;;6.47;3.27;;;5.40;99.90;;;;;;4998951;28;20522;-71
2022/01/08 12:05:08;;;;;;;3.53;2.50;;;5.50;99.90;;;;;;5005497;28;22310;-74
2022/01/08 12:07:39;;;;;;;3.13;2.47;;;5.70;99.90;;;;;;5003532;28;20509;-71
2022/01/08 12:10:13;;;;;;;4.50;3.00;;;5.90;99.90;;;;;;5006609;28;20440;-70
2022/01/08 12:12:49;;;;;;;4.20;3.20;;;6.00;99.90;;;;;;5006232;28;20457;-70
2022/01/08 12:15:19;;;;;;;7.50;3.53;;;6.40;99.90;;;;;;5007547;28;20592;-71
2022/01/08 12:17:56;;;;;;;2.90;1.43;;;6.70;99.90;;;;;;5005574;28;21052;-70
2022/01/08 12:20:44;;;;;;;6.00;4.73;;;6.40;99.90;;;;;;5009017;28;20463;-72
2022/01/08 12:23:35;;;;;;;2.60;2.30;;;6.40;99.90;;;;;;5004598;28;20596;-68
2022/01/08 12:26:09;;;;;;;1.60;1.50;;;6.50;99.90;;;;;;4997684;28;20968;-71
2022/01/08 12:28:58;;;;;;;2.23;2.03;;;6.30;99.90;;;;;;5011589;28;21208;-70
2022/01/08 12:31:37;;;;;;;7.70;3.37;;;6.00;99.90;;;;;;5003552;28;20575;-71
2022/01/08 12:34:38;;;;;;;1.20;1.10;;;5.70;99.90;;;;;;5004331;28;20485;-72
2022/01/08 12:37:08;;;;;;;2.43;1.90;;;5.70;99.90;;;;;;5008056;28;20948;-70
2022/01/08 12:39:57;;;;;;;3.60;2.10;;;5.70;99.90;;;;;;5008937;28;21258;-71
2022/01/08 12:42:45;;;;;;;3.73;1.23;;;5.80;99.90;;;;;;5008289;28;20466;-71
2022/01/08 12:45:20;;;;;;;2.17;1.73;;;5.60;99.90;;;;;;5007652;28;20474;-70
2022/01/08 12:47:55;;;;;;;4.30;1.97;;;5.60;99.90;;;;;;5006055;28;20926;-71
2022/01/08 12:50:28;;;;;;;6.20;3.17;;;5.60;99.90;;;;;;5001991;28;21109;-70
2022/01/08 12:53:14;;;;;;;3.07;2.87;;;5.70;99.90;;;;;;4999635;28;20525;-70
2022/01/08 12:55:43;;;;;;;2.17;1.97;;;5.60;99.90;;;;;;5003533;28;20545;-68
2022/01/08 12:58:16;;;;;;;1.10;1.00;;;5.50;99.90;;;;;;5007847;28;20601;-70
2022/01/08 13:01:03;;;;;;;4.77;2.70;;;5.60;99.90;;;;;;5007933;28;20489;-71
2022/01/08 13:03:31;;;;;;;1.97;1.33;;;5.70;99.90;;;;;;5006744;28;20442;-73
2022/01/08 13:05:59;;;;;;;1.70;1.60;;;5.70;99.90;;;;;;5007882;28;20457;-71
2022/01/08 13:08:29;;;;;;;3.43;1.67;;;5.70;99.90;;;;;;5009791;28;20525;-73
2022/01/08 13:11:00;;;;;;;7.13;5.37;;;5.90;99.90;;;;;;4999753;28;20667;-70
2022/01/08 13:13:39;;;;;;;2.50;1.20;;;5.80;99.90;;;;;;5013511;28;20578;-70
2022/01/08 13:16:12;;;;;;;1.53;1.43;;;5.80;99.90;;;;;;5014380;28;20659;-71
2022/01/08 13:18:40;;;;;;;12.60;2.60;;;5.60;99.90;;;;;;5010909;28;20466;-72
2022/01/08 13:21:08;;;;;;;4.07;1.50;;;5.60;99.90;;;;;;5009507;28;20536;-73
2022/01/08 13:23:45;;;;;;;2.30;1.70;;;5.70;99.90;;;;;;5003767;28;20809;-70